createdAt,value
2023-04-20T00:00:14.566Z,96.4978
2023-04-20T00:01:22.441Z,97.8453
2023-04-20T00:02:30.791Z,98.5384
2023-04-20T00:03:38.749Z,97.6275
2023-04-20T00:04:46.613Z,97.8939
2023-04-20T00:05:54.763Z,98.2221
2023-04-20T00:07:02.794Z,98.9329
2023-04-20T00:08:10.757Z,98.6613
2023-04-20T00:09:19.190Z,99.1446
2023-04-20T00:10:27.066Z,99.5269
2023-04-20T00:11:35.116Z,100.8926
2023-04-20T00:12:43.284Z,99.5006
2023-04-20T00:13:51.097Z,99.4177
2023-04-20T00:14:59.241Z,99.0904
2023-04-20T00:16:07.244Z,99.9540
2023-04-20T00:17:15.440Z,99.1464
2023-04-20T00:18:23.453Z,99.1280
2023-04-20T00:19:31.580Z,99.0963
2023-04-20T00:20:39.635Z,99.2820
2023-04-20T00:21:47.797Z,99.3413
2023-04-20T00:22:55.905Z,98.6103
2023-04-20T00:24:03.817Z,99.7779
2023-04-20T00:25:11.875Z,99.2479
2023-04-20T00:26:19.905Z,99.8802
2023-04-20T00:27:27.877Z,99.4610
2023-04-20T00:28:36.129Z,98.5190
2023-04-20T00:29:44.004Z,98.5033
2023-04-20T00:30:52.272Z,97.9268
2023-04-20T00:32:00.292Z,98.2536
2023-04-20T00:33:08.272Z,97.9874
2023-04-20T00:34:16.445Z,97.1768
2023-04-20T00:35:24.449Z,97.8331
2023-04-20T00:36:32.522Z,98.7674
2023-04-20T00:37:40.611Z,98.1469
2023-04-20T00:38:48.821Z,97.7748
2023-04-20T00:39:56.785Z,98.1268
2023-04-20T00:41:04.760Z,97.7859
2023-04-20T00:42:12.835Z,97.6859
2023-04-20T00:43:20.920Z,99.8643
2023-04-20T00:44:28.841Z,98.0837
2023-04-20T00:45:37.060Z,96.5612
2023-04-20T00:46:45.520Z,99.4347
2023-04-20T00:47:53.403Z,100.8631
2023-04-20T00:49:01.300Z,98.5162
2023-04-20T00:50:09.353Z,100.2446
2023-04-20T00:51:17.428Z,99.4466
2023-04-20T00:52:25.455Z,98.9155
2023-04-20T00:53:33.514Z,99.3538
2023-04-20T00:54:41.584Z,99.0147
2023-04-20T00:55:49.604Z,100.2106
2023-04-20T00:56:57.890Z,98.2955
2023-04-20T00:58:05.819Z,98.0819
2023-04-20T00:59:13.865Z,98.5811
2023-04-20T01:00:21.907Z,99.4896
2023-04-20T01:01:29.989Z,98.6257
2023-04-20T01:02:38.175Z,98.7500
2023-04-20T01:03:46.322Z,98.8432
2023-04-20T01:04:54.038Z,100.1686
2023-04-20T01:06:02.436Z,100.5014
2023-04-20T01:07:10.323Z,99.0146
2023-04-20T01:08:18.288Z,98.9315
2023-04-20T01:09:26.461Z,98.0033
2023-04-20T01:10:34.511Z,97.2727
2023-04-20T01:11:42.558Z,96.6259
2023-04-20T01:12:50.614Z,97.4209
2023-04-20T01:13:58.742Z,96.3227
2023-04-20T01:15:06.883Z,97.1582
2023-04-20T01:16:14.775Z,99.2823
2023-04-20T01:17:22.999Z,99.0017
2023-04-20T01:18:30.843Z,100.0939
2023-04-20T01:19:38.952Z,99.8759
2023-04-20T01:20:47.110Z,99.1147
2023-04-20T01:21:55.169Z,97.8415
2023-04-20T01:23:03.215Z,97.8950
2023-04-20T01:24:11.172Z,99.1398
2023-04-20T01:25:19.256Z,100.7800
2023-04-20T01:26:27.507Z,100.6644
2023-04-20T01:27:35.431Z,99.8571
2023-04-20T01:28:43.577Z,99.5403
2023-04-20T01:29:51.621Z,100.4940
2023-04-20T01:30:59.576Z,99.0667
2023-04-20T01:32:07.760Z,98.1950
2023-04-20T01:33:15.765Z,98.4352
2023-04-20T01:34:23.915Z,98.0910
2023-04-20T01:35:32.084Z,98.1331
2023-04-20T01:36:40.054Z,99.2339
2023-04-20T01:37:48.052Z,99.0441
2023-04-20T01:38:56.194Z,99.6942
2023-04-20T01:40:04.232Z,98.9648
2023-04-20T01:41:12.303Z,99.4010
2023-04-20T01:42:20.292Z,100.1070
2023-04-20T01:43:28.525Z,98.5660
2023-04-20T01:44:36.470Z,98.8047
2023-04-20T01:45:44.416Z,98.4340
2023-04-20T01:46:52.761Z,99.1079
2023-04-20T01:48:00.780Z,99.1228
2023-04-20T01:49:08.738Z,99.9424
2023-04-20T01:50:16.780Z,99.7469
2023-04-20T01:51:24.701Z,99.6798
2023-04-20T01:52:32.981Z,101.5991
2023-04-20T01:53:40.945Z,101.7667
2023-04-20T01:54:49.021Z,100.4108
2023-04-20T01:55:57.289Z,100.6713
2023-04-20T01:57:05.160Z,100.0497
2023-04-20T01:58:13.277Z,98.1024
2023-04-20T01:59:21.165Z,97.5161
2023-04-20T02:00:29.349Z,96.6849
2023-04-20T02:01:37.300Z,95.6574
2023-04-20T02:02:45.474Z,97.2057
2023-04-20T02:03:53.664Z,96.7567
2023-04-20T02:05:01.670Z,98.1804
2023-04-20T02:06:09.715Z,99.3657
2023-04-20T02:07:17.748Z,99.5018
2023-04-20T02:08:25.802Z,98.8580
2023-04-20T02:09:33.914Z,98.6832
2023-04-20T02:10:41.805Z,97.9894
2023-04-20T02:11:50.005Z,96.8098
2023-04-20T02:12:57.943Z,97.0853
2023-04-20T02:14:06.226Z,97.9571
2023-04-20T02:15:14.286Z,96.9942
2023-04-20T02:16:22.238Z,96.5059
2023-04-20T02:17:30.344Z,97.4038
2023-04-20T02:18:38.374Z,99.8713
2023-04-20T02:19:46.404Z,99.8878
2023-04-20T02:20:54.572Z,97.7241
2023-04-20T02:22:02.698Z,96.7114
2023-04-20T02:23:10.642Z,96.7612
2023-04-20T02:24:18.821Z,97.4746
2023-04-20T02:25:27.001Z,97.9632
2023-04-20T02:26:34.870Z,97.5198
2023-04-20T02:27:42.922Z,97.1490
2023-04-20T02:28:50.942Z,97.1914
2023-04-20T02:29:58.979Z,98.5450
2023-04-20T02:31:07.100Z,99.0665
2023-04-20T02:32:15.184Z,98.0546
2023-04-20T02:33:23.204Z,97.1656
2023-04-20T02:34:31.260Z,98.7369
2023-04-20T02:35:39.302Z,99.1807
2023-04-20T02:36:47.306Z,97.3254
2023-04-20T02:37:55.438Z,97.6974
2023-04-20T02:39:03.368Z,97.9359
2023-04-20T02:40:11.552Z,99.1559
2023-04-20T02:41:19.635Z,99.8202
2023-04-20T02:42:27.705Z,98.1557
2023-04-20T02:43:35.744Z,99.2091
2023-04-20T02:44:43.835Z,99.9259
2023-04-20T02:45:51.922Z,99.4909
2023-04-20T02:47:00.037Z,100.2957
2023-04-20T02:48:08.142Z,98.0356
2023-04-20T02:49:16.588Z,98.0234
2023-04-20T02:50:24.100Z,98.4473
2023-04-20T02:51:32.305Z,98.0382
2023-04-20T02:52:40.391Z,98.7927
2023-04-20T02:53:48.578Z,98.0871
2023-04-20T02:54:56.484Z,99.2275
2023-04-20T02:56:04.559Z,99.2970
2023-04-20T02:57:12.638Z,98.9390
2023-04-20T02:58:20.684Z,98.9119
2023-04-20T02:59:28.780Z,99.5990
2023-04-20T03:00:36.801Z,99.1486
2023-04-20T03:01:45.000Z,98.0273
2023-04-20T03:02:53.185Z,99.3214
2023-04-20T03:04:01.245Z,97.5408
2023-04-20T03:05:09.074Z,96.2366
2023-04-20T03:06:17.137Z,95.9030
2023-04-20T03:07:25.057Z,96.4413
2023-04-20T03:08:33.227Z,96.1436
2023-04-20T03:09:41.302Z,97.4555
2023-04-20T03:10:49.334Z,97.5497
2023-04-20T03:11:57.647Z,98.1359
2023-04-20T03:13:05.476Z,98.7309
2023-04-20T03:14:13.580Z,98.2839
2023-04-20T03:15:21.661Z,97.4928
2023-04-20T03:16:29.660Z,97.1416
2023-04-20T03:17:37.829Z,97.5267
2023-04-20T03:18:45.669Z,96.7506
2023-04-20T03:19:53.871Z,96.8512
2023-04-20T03:21:02.061Z,98.1832
2023-04-20T03:22:09.988Z,98.3600
2023-04-20T03:23:18.098Z,98.6720
2023-04-20T03:24:26.132Z,97.7622
2023-04-20T03:25:34.197Z,97.1554
2023-04-20T03:26:42.330Z,96.5756
2023-04-20T03:27:50.319Z,95.2983
2023-04-20T03:28:58.438Z,95.2420
2023-04-20T03:30:06.583Z,94.4526
2023-04-20T03:31:14.389Z,94.8969
2023-04-20T03:32:22.708Z,95.6693
2023-04-20T03:33:30.604Z,95.2982
2023-04-20T03:34:38.748Z,95.4255
2023-04-20T03:35:46.750Z,95.7105
2023-04-20T03:36:54.833Z,97.6046
2023-04-20T03:38:02.940Z,97.8401
2023-04-20T03:39:10.928Z,98.7727
2023-04-20T03:40:19.078Z,98.8512
2023-04-20T03:41:27.120Z,97.7431
2023-04-20T03:42:35.138Z,97.7519
2023-04-20T03:43:43.234Z,98.6678
2023-04-20T03:44:51.301Z,98.9826
2023-04-20T03:45:59.383Z,98.1001
2023-04-20T03:47:07.499Z,98.4491
2023-04-20T03:48:15.481Z,98.3250
2023-04-20T03:49:23.592Z,98.9461
2023-04-20T03:50:31.496Z,99.1149
2023-04-20T03:51:39.746Z,98.3527
2023-04-20T03:52:47.733Z,98.6828
2023-04-20T03:53:55.624Z,98.0900
2023-04-20T03:55:03.907Z,97.2225
2023-04-20T03:56:11.785Z,97.7545
2023-04-20T03:57:19.937Z,97.5760
2023-04-20T03:58:28.041Z,97.2535
2023-04-20T03:59:36.076Z,96.3014
2023-04-20T04:00:44.165Z,96.7183
2023-04-20T04:01:52.238Z,98.0579
2023-04-20T04:03:00.412Z,97.4230
2023-04-20T04:04:08.656Z,96.0664
2023-04-20T04:05:16.309Z,95.9591
2023-04-20T04:06:24.436Z,96.0993
2023-04-20T04:07:32.477Z,96.6458
2023-04-20T04:08:40.510Z,98.2053
2023-04-20T04:09:48.559Z,98.3678
2023-04-20T04:10:56.658Z,97.6051
2023-04-20T04:12:04.719Z,96.6740
2023-04-20T04:13:12.780Z,97.4236
2023-04-20T04:14:20.810Z,98.2645
2023-04-20T04:15:29.013Z,98.1340
2023-04-20T04:16:36.904Z,97.6541
2023-04-20T04:17:45.095Z,97.9549
2023-04-20T04:18:53.012Z,100.4662
2023-04-20T04:20:01.150Z,99.5308
2023-04-20T04:21:09.175Z,99.3521
2023-04-20T04:22:17.335Z,100.6844
2023-04-20T04:23:25.386Z,101.0043
2023-04-20T04:24:33.472Z,100.8809
2023-04-20T04:25:41.592Z,100.5656
2023-04-20T04:26:49.511Z,100.7662
2023-04-20T04:27:57.567Z,100.1373
2023-04-20T04:29:05.696Z,99.6349
2023-04-20T04:30:13.813Z,98.8205
2023-04-20T04:31:21.841Z,98.6938
2023-04-20T04:32:29.862Z,100.1058
2023-04-20T04:33:37.986Z,98.7814
2023-04-20T04:34:45.993Z,98.9201
2023-04-20T04:35:54.063Z,98.5039
2023-04-20T04:37:02.085Z,100.0238
2023-04-20T04:38:10.148Z,99.8897
2023-04-20T04:39:18.327Z,99.7907
2023-04-20T04:40:26.327Z,99.0400
2023-04-20T04:41:34.416Z,97.3696
2023-04-20T04:42:42.544Z,97.0707
2023-04-20T04:43:50.478Z,97.9292
2023-04-20T04:44:58.660Z,98.8237
2023-04-20T04:46:06.684Z,100.5979
2023-04-20T04:47:14.699Z,101.5615
2023-04-20T04:48:22.729Z,100.7500
2023-04-20T04:49:30.793Z,100.4200
2023-04-20T04:50:38.897Z,100.1184
2023-04-20T04:51:47.078Z,99.4606
2023-04-20T04:52:55.056Z,100.0740
2023-04-20T04:54:02.997Z,99.3155
2023-04-20T04:55:11.142Z,98.4141
2023-04-20T04:56:19.266Z,97.7970
2023-04-20T04:57:27.301Z,98.0998
2023-04-20T04:58:35.299Z,98.4614
2023-04-20T04:59:43.311Z,97.8905
2023-04-20T05:00:51.438Z,97.7461
2023-04-20T05:01:59.688Z,98.2443
2023-04-20T05:03:07.781Z,97.7092
2023-04-20T05:04:15.858Z,98.0802
2023-04-20T05:05:23.661Z,99.7133
2023-04-20T05:06:31.731Z,97.6519
2023-04-20T05:07:39.957Z,99.1724
2023-04-20T05:08:47.867Z,99.1561
2023-04-20T05:09:55.969Z,98.6005
2023-04-20T05:11:04.116Z,99.0434
2023-04-20T05:12:12.069Z,101.2842
2023-04-20T05:13:20.144Z,101.4391
2023-04-20T05:14:28.198Z,100.7734
2023-04-20T05:15:36.357Z,100.0363
2023-04-20T05:16:44.319Z,99.1994
2023-04-20T05:17:52.402Z,98.2863
2023-04-20T05:19:00.532Z,98.3661
2023-04-20T05:20:08.442Z,99.5534
2023-04-20T05:21:16.565Z,99.8776
2023-04-20T05:22:24.657Z,99.5922
2023-04-20T05:23:32.675Z,98.7790
2023-04-20T05:24:40.769Z,98.2132
2023-04-20T05:25:48.911Z,98.3540
2023-04-20T05:26:56.875Z,97.0814
2023-04-20T05:28:04.926Z,97.5438
2023-04-20T05:29:13.085Z,98.9242
2023-04-20T05:30:22.219Z,98.4061
2023-04-20T05:31:29.087Z,98.8779
2023-04-20T05:32:37.223Z,98.8546
2023-04-20T05:33:45.297Z,99.8444
2023-04-20T05:34:53.314Z,99.0994
2023-04-20T05:36:01.415Z,98.2040
2023-04-20T05:37:09.369Z,98.1038
2023-04-20T05:38:17.656Z,98.5429
2023-04-20T05:39:25.555Z,100.0325
2023-04-20T05:40:33.629Z,99.9810
2023-04-20T05:41:41.845Z,99.2404
2023-04-20T05:42:49.700Z,99.8819
2023-04-20T05:43:57.833Z,99.9300
2023-04-20T05:45:05.970Z,99.7471
2023-04-20T05:46:13.953Z,98.5770
2023-04-20T05:47:22.147Z,99.2171
2023-04-20T05:48:30.249Z,99.2055
2023-04-20T05:49:38.129Z,99.9742
2023-04-20T05:50:46.232Z,100.1518
2023-04-20T05:51:54.300Z,99.3643
2023-04-20T05:53:02.480Z,98.9491
2023-04-20T05:54:10.404Z,99.3458
2023-04-20T05:55:19.932Z,97.9431
2023-04-20T05:56:31.406Z,98.6551
2023-04-20T05:57:39.391Z,100.7455
2023-04-20T05:58:47.684Z,101.1430
2023-04-20T05:59:55.619Z,100.7601
2023-04-20T06:01:03.719Z,99.9585
2023-04-20T06:02:11.769Z,100.1011
2023-04-20T06:03:19.886Z,99.5158
2023-04-20T06:04:27.964Z,99.9117
2023-04-20T06:05:35.990Z,100.3881
2023-04-20T06:06:43.973Z,100.8621
2023-04-20T06:07:52.148Z,100.9129
2023-04-20T06:09:00.277Z,100.9802
2023-04-20T06:10:08.253Z,100.8962
2023-04-20T06:11:16.221Z,100.5049
2023-04-20T06:12:26.655Z,100.3900
2023-04-20T06:13:32.348Z,99.9914
2023-04-20T06:14:40.473Z,99.3918
2023-04-20T06:15:48.537Z,99.8274
2023-04-20T06:16:56.540Z,100.2893
2023-04-20T06:18:04.666Z,100.2574
2023-04-20T06:19:12.680Z,99.9666
2023-04-20T06:20:20.910Z,99.5454
2023-04-20T06:21:28.798Z,99.2191
2023-04-20T06:22:36.857Z,98.5617
2023-04-20T06:23:44.904Z,98.6429
2023-04-20T06:24:52.984Z,100.1929
2023-04-20T06:26:01.097Z,99.7621
2023-04-20T06:27:09.141Z,99.6700
2023-04-20T06:28:17.219Z,99.1884
2023-04-20T06:29:25.340Z,98.8789
2023-04-20T06:30:33.329Z,99.7016
2023-04-20T06:31:41.527Z,100.0928
2023-04-20T06:32:49.538Z,100.0056
2023-04-20T06:33:57.556Z,99.2120
2023-04-20T06:35:05.525Z,99.5913
2023-04-20T06:36:13.785Z,99.7799
2023-04-20T06:37:21.756Z,100.0867
2023-04-20T06:38:29.816Z,100.8036
2023-04-20T06:39:37.980Z,100.4325
2023-04-20T06:40:45.837Z,99.8798
2023-04-20T06:41:54.027Z,101.2940
2023-04-20T06:43:02.142Z,100.0913
2023-04-20T06:44:10.155Z,99.4539
2023-04-20T06:45:18.191Z,99.0812
2023-04-20T06:46:26.324Z,100.1423
2023-04-20T06:47:34.373Z,100.2170
2023-04-20T06:48:42.420Z,100.1882
2023-04-20T06:49:50.470Z,100.4894
2023-04-20T06:50:58.636Z,101.5814
2023-04-20T06:52:06.630Z,100.2957
2023-04-20T06:53:14.646Z,99.5655
2023-04-20T06:54:22.835Z,98.8730
2023-04-20T06:55:30.808Z,100.2640
2023-04-20T06:56:38.929Z,100.6570
2023-04-20T06:57:46.978Z,100.2770
2023-04-20T06:58:55.028Z,99.6813
2023-04-20T07:00:03.189Z,98.7559
2023-04-20T07:01:11.162Z,99.1146
2023-04-20T07:02:19.335Z,99.5347
2023-04-20T07:03:27.619Z,98.9345
2023-04-20T07:04:35.382Z,99.7286
2023-04-20T07:05:43.475Z,99.4697
2023-04-20T07:06:53.904Z,99.0822
2023-04-20T07:08:04.528Z,98.9549
2023-04-20T07:09:12.473Z,98.6670
2023-04-20T07:10:20.556Z,98.3377
2023-04-20T07:11:28.833Z,98.6980
2023-04-20T07:12:36.667Z,99.4058
2023-04-20T07:13:44.861Z,100.2122
2023-04-20T07:14:52.807Z,99.2895
2023-04-20T07:16:01.057Z,98.7112
2023-04-20T07:17:09.008Z,99.6033
2023-04-20T07:18:17.018Z,99.1234
2023-04-20T07:19:25.151Z,99.4736
2023-04-20T07:20:33.162Z,99.0175
2023-04-20T07:21:41.200Z,97.5908
2023-04-20T07:22:49.420Z,98.1349
2023-04-20T07:23:57.321Z,98.9914
2023-04-20T07:25:05.426Z,99.0494
2023-04-20T07:26:13.464Z,99.3461
2023-04-20T07:27:21.522Z,98.0996
2023-04-20T07:28:29.626Z,98.1940
2023-04-20T07:29:37.785Z,98.5998
2023-04-20T07:30:45.826Z,98.9506
2023-04-20T07:31:53.978Z,98.7465
2023-04-20T07:33:01.888Z,98.0632
2023-04-20T07:34:09.939Z,97.8045
2023-04-20T07:35:17.974Z,98.6193
2023-04-20T07:36:26.042Z,98.7242
2023-04-20T07:37:34.143Z,98.2402
2023-04-20T07:38:42.131Z,97.6132
2023-04-20T07:39:50.250Z,97.6564
2023-04-20T07:40:58.323Z,98.0226
2023-04-20T07:42:06.520Z,97.6375
2023-04-20T07:43:14.489Z,97.9067
2023-04-20T07:44:22.514Z,98.4082
2023-04-20T07:45:30.652Z,98.4826
2023-04-20T07:46:38.604Z,98.5156
2023-04-20T07:47:46.749Z,98.2260
2023-04-20T07:48:54.754Z,98.1738
2023-04-20T07:50:02.819Z,97.5405
2023-04-20T07:51:11.077Z,97.1833
2023-04-20T07:52:18.940Z,97.4045
2023-04-20T07:53:27.101Z,98.1001
2023-04-20T07:54:35.070Z,98.3071
2023-04-20T07:55:43.202Z,98.0033
2023-04-20T07:56:51.179Z,98.5980
2023-04-20T07:57:59.240Z,98.1539
2023-04-20T07:59:07.309Z,98.2928
2023-04-20T08:00:15.484Z,98.0707
2023-04-20T08:01:23.628Z,98.3331
2023-04-20T08:02:31.637Z,98.5269
2023-04-20T08:03:39.793Z,97.7986
2023-04-20T08:04:47.696Z,98.1910
2023-04-20T08:05:55.828Z,98.2763
2023-04-20T08:07:04.109Z,97.5210
2023-04-20T08:08:11.850Z,96.8198
2023-04-20T08:09:20.013Z,96.6753
2023-04-20T08:10:27.928Z,97.0172
2023-04-20T08:11:36.030Z,97.4144
2023-04-20T08:12:44.234Z,97.6896
2023-04-20T08:13:52.142Z,98.0561
2023-04-20T08:15:00.297Z,97.5205
2023-04-20T08:16:08.212Z,97.1197
2023-04-20T08:17:16.400Z,96.5710
2023-04-20T08:18:24.460Z,96.9216
2023-04-20T08:19:32.606Z,96.5788
2023-04-20T08:20:40.551Z,96.4860
2023-04-20T08:21:48.631Z,96.2581
2023-04-20T08:22:56.695Z,95.9357
2023-04-20T08:24:04.879Z,95.8932
2023-04-20T08:25:12.796Z,96.8942
2023-04-20T08:26:20.856Z,97.6493
2023-04-20T08:27:29.118Z,97.0446
2023-04-20T08:28:37.170Z,96.3778
2023-04-20T08:29:45.086Z,96.8469
2023-04-20T08:30:53.200Z,95.9468
2023-04-20T08:32:01.285Z,95.7655
2023-04-20T08:33:09.320Z,96.7682
2023-04-20T08:34:17.328Z,96.4530
2023-04-20T08:35:25.490Z,96.5240
2023-04-20T08:36:33.466Z,96.4818
2023-04-20T08:37:41.489Z,96.7668
2023-04-20T08:38:49.603Z,96.4394
2023-04-20T08:39:57.624Z,95.7799
2023-04-20T08:41:05.719Z,96.1884
2023-04-20T08:42:13.650Z,96.0782
2023-04-20T08:43:22.190Z,95.6653
2023-04-20T08:44:29.888Z,95.6462
2023-04-20T08:45:37.935Z,94.6550
2023-04-20T08:46:46.054Z,94.3675
2023-04-20T08:47:54.246Z,93.6961
2023-04-20T08:49:02.103Z,93.9057
2023-04-20T08:50:10.274Z,95.0383
2023-04-20T08:51:18.239Z,94.9547
2023-04-20T08:52:26.364Z,95.2086
2023-04-20T08:53:34.297Z,94.9656
2023-04-20T08:54:55.289Z,94.6431
2023-04-20T08:55:55.334Z,95.4609
2023-04-20T08:57:03.341Z,95.1881
2023-04-20T08:58:11.741Z,94.7018
2023-04-20T08:59:19.514Z,94.6420
2023-04-20T09:00:27.591Z,94.1712
2023-04-20T09:01:36.306Z,93.4809
2023-04-20T09:02:43.835Z,94.1297
2023-04-20T09:03:51.919Z,94.2119
2023-04-20T09:04:59.892Z,93.4675
2023-04-20T09:06:07.885Z,94.5339
2023-04-20T09:07:16.126Z,94.8755
2023-04-20T09:08:23.929Z,95.4989
2023-04-20T09:09:32.073Z,95.4862
2023-04-20T09:10:40.176Z,94.5467
2023-04-20T09:11:48.193Z,94.3282
2023-04-20T09:12:56.395Z,93.6905
2023-04-20T09:14:04.233Z,93.6347
2023-04-20T09:15:12.391Z,93.1109
2023-04-20T09:16:20.560Z,92.8195
2023-04-20T09:17:28.618Z,93.1797
2023-04-20T09:18:36.593Z,93.5707
2023-04-20T09:19:44.670Z,92.2607
2023-04-20T09:20:52.697Z,93.6627
2023-04-20T09:22:00.756Z,91.7732
2023-04-20T09:23:08.815Z,92.7062
2023-04-20T09:24:17.233Z,93.0616
2023-04-20T09:25:25.614Z,93.2315
2023-04-20T09:26:33.027Z,91.2259
2023-04-20T09:27:41.184Z,92.0287
2023-04-20T09:28:49.142Z,92.7528
2023-04-20T09:29:57.253Z,93.4349
2023-04-20T09:31:05.302Z,92.6744
2023-04-20T09:32:13.420Z,92.3367
2023-04-20T09:33:21.402Z,93.8080
2023-04-20T09:34:29.561Z,93.1146
2023-04-20T09:35:37.638Z,92.6001
2023-04-20T09:36:45.603Z,92.0948
2023-04-20T09:37:53.627Z,93.8253
2023-04-20T09:39:01.808Z,94.1323
2023-04-20T09:40:09.862Z,93.0737
2023-04-20T09:41:17.878Z,92.2777
2023-04-20T09:42:25.943Z,91.3324
2023-04-20T09:43:33.951Z,91.4581
2023-04-20T09:44:41.998Z,93.0525
2023-04-20T09:45:50.040Z,92.9355
2023-04-20T09:46:58.274Z,93.0703
2023-04-20T09:48:06.275Z,93.0276
2023-04-20T09:49:14.246Z,94.2988
2023-04-20T09:50:28.916Z,95.2581
2023-04-20T09:51:35.222Z,95.4438
2023-04-20T09:52:43.325Z,95.1226
2023-04-20T09:53:53.060Z,93.4515
2023-04-20T09:54:59.486Z,94.5676
2023-04-20T09:56:07.580Z,94.7650
2023-04-20T09:57:15.520Z,95.0275
2023-04-20T09:58:23.825Z,95.3101
2023-04-20T09:59:31.660Z,95.1184
2023-04-20T10:00:39.653Z,95.5788
2023-04-20T10:01:47.916Z,94.7399
2023-04-20T10:02:55.923Z,95.2143
2023-04-20T10:04:04.288Z,94.7285
2023-04-20T10:05:12.019Z,94.1395
2023-04-20T10:06:20.054Z,94.7147
2023-04-20T10:07:28.064Z,95.2702
2023-04-20T10:08:36.224Z,95.7627
2023-04-20T10:09:44.213Z,95.0027
2023-04-20T10:10:52.346Z,95.9069
2023-04-20T10:12:00.237Z,95.9809
2023-04-20T10:13:08.486Z,95.3590
2023-04-20T10:14:16.692Z,95.1516
2023-04-20T10:15:24.558Z,95.7332
2023-04-20T10:16:32.696Z,95.8531
2023-04-20T10:17:40.662Z,95.8724
2023-04-20T10:18:48.766Z,95.7203
2023-04-20T10:19:56.920Z,95.7665
2023-04-20T10:21:04.882Z,95.4077
2023-04-20T10:22:12.998Z,94.5605
2023-04-20T10:23:20.865Z,94.0936
2023-04-20T10:24:28.983Z,94.3742
2023-04-20T10:25:37.043Z,94.4668
2023-04-20T10:26:45.161Z,94.1997
2023-04-20T10:27:53.170Z,94.6528
2023-04-20T10:29:01.147Z,94.1728
2023-04-20T10:30:09.294Z,94.6017
2023-04-20T10:31:17.509Z,95.8103
2023-04-20T10:32:25.490Z,96.7154
2023-04-20T10:33:33.608Z,97.6272
2023-04-20T10:34:41.613Z,97.4209
2023-04-20T10:35:49.617Z,97.1919
2023-04-20T10:36:57.679Z,96.3765
2023-04-20T10:38:05.849Z,95.8043
2023-04-20T10:39:13.787Z,95.7347
2023-04-20T10:40:21.832Z,96.0823
2023-04-20T10:41:29.810Z,95.9777
2023-04-20T10:42:37.956Z,95.3687
2023-04-20T10:43:46.112Z,96.2219
2023-04-20T10:44:54.094Z,96.8327
2023-04-20T10:46:02.155Z,96.3553
2023-04-20T10:47:10.215Z,97.6101
2023-04-20T10:48:18.512Z,98.0727
2023-04-20T10:49:26.471Z,96.7347
2023-04-20T10:50:34.405Z,96.1884
2023-04-20T10:51:42.435Z,96.0240
2023-04-20T10:52:50.701Z,96.9757
2023-04-20T10:53:58.564Z,97.7035
2023-04-20T10:55:06.596Z,97.6102
2023-04-20T10:56:14.727Z,97.7774
2023-04-20T10:57:22.765Z,98.3127
2023-04-20T10:58:30.857Z,97.8558
2023-04-20T10:59:38.872Z,96.9577
2023-04-20T11:00:46.885Z,96.3591
2023-04-20T11:01:55.129Z,96.9875
2023-04-20T11:03:03.128Z,97.6498
2023-04-20T11:04:11.052Z,98.0664
2023-04-20T11:05:19.306Z,97.5652
2023-04-20T11:06:27.360Z,97.0552
2023-04-20T11:07:35.489Z,97.3970
2023-04-20T11:08:43.446Z,97.0453
2023-04-20T11:09:51.539Z,96.9340
2023-04-20T11:10:59.627Z,96.9368
2023-04-20T11:12:07.870Z,96.5880
2023-04-20T11:13:15.737Z,97.0111
2023-04-20T11:14:23.666Z,96.7459
2023-04-20T11:15:31.746Z,96.5730
2023-04-20T11:16:50.817Z,96.7653
2023-04-20T11:17:52.874Z,97.3665
2023-04-20T11:19:00.851Z,96.4026
2023-04-20T11:20:09.041Z,96.8925
2023-04-20T11:21:16.927Z,95.9081
2023-04-20T11:22:25.099Z,96.2377
2023-04-20T11:23:33.152Z,96.7111
2023-04-20T11:24:41.245Z,97.0261
2023-04-20T11:25:49.256Z,97.1982
2023-04-20T11:26:57.354Z,97.3219
2023-04-20T11:28:05.446Z,98.4409
2023-04-20T11:29:13.537Z,98.2295
2023-04-20T11:30:21.432Z,98.9103
2023-04-20T11:31:29.734Z,98.0693
2023-04-20T11:32:37.819Z,97.7582
2023-04-20T11:33:45.788Z,96.9595
2023-04-20T11:35:03.379Z,97.7669
2023-04-20T11:36:06.630Z,97.1760
2023-04-20T11:37:14.820Z,97.0939
2023-04-20T11:38:22.861Z,97.8722
2023-04-20T11:39:30.894Z,97.5377
2023-04-20T11:40:39.066Z,97.3438
2023-04-20T11:41:47.101Z,97.1867
2023-04-20T11:42:54.983Z,96.7970
2023-04-20T11:44:03.112Z,97.2883
2023-04-20T11:45:11.398Z,97.1358
2023-04-20T11:46:19.429Z,97.3242
2023-04-20T11:47:27.477Z,97.4795
2023-04-20T11:48:35.380Z,97.7119
2023-04-20T11:49:43.444Z,97.5029
2023-04-20T11:50:51.453Z,96.8198
2023-04-20T11:51:59.638Z,97.7226
2023-04-20T11:53:07.573Z,97.4608
2023-04-20T11:54:15.778Z,97.3499
2023-04-20T11:55:23.927Z,97.2621
2023-04-20T11:56:31.826Z,97.3327
2023-04-20T11:57:39.935Z,97.3722
2023-04-20T11:58:48.036Z,98.1824
2023-04-20T11:59:56.006Z,98.3058
2023-04-20T12:01:04.100Z,97.7471
2023-04-20T12:02:12.215Z,98.3345
2023-04-20T12:03:20.374Z,98.3239
2023-04-20T12:04:28.584Z,98.5712
2023-04-20T12:05:36.469Z,98.5834
2023-04-20T12:06:44.496Z,98.4525
2023-04-20T12:07:52.555Z,98.3081
2023-04-20T12:09:00.592Z,98.3394
2023-04-20T12:10:08.679Z,97.6545
2023-04-20T12:11:16.641Z,98.7796
2023-04-20T12:12:24.732Z,98.4548
2023-04-20T12:13:32.950Z,97.7843
2023-04-20T12:14:40.865Z,98.2066
2023-04-20T12:15:48.996Z,97.9958
2023-04-20T12:16:58.554Z,97.9831
2023-04-20T12:18:05.088Z,97.2921
2023-04-20T12:19:13.083Z,96.7533
2023-04-20T12:20:21.181Z,97.2566
2023-04-20T12:21:29.355Z,96.8573
2023-04-20T12:22:37.221Z,98.3441
2023-04-20T12:23:45.377Z,98.0847
2023-04-20T12:24:53.495Z,97.8692
2023-04-20T12:26:01.548Z,97.6446
2023-04-20T12:27:09.530Z,98.1213
2023-04-20T12:28:17.690Z,97.2264
2023-04-20T12:29:25.663Z,96.3026
2023-04-20T12:30:33.717Z,96.6990
2023-04-20T12:31:41.860Z,96.9123
2023-04-20T12:32:50.124Z,97.2209
2023-04-20T12:33:57.913Z,97.1673
2023-04-20T12:35:05.985Z,97.0827
2023-04-20T12:36:14.160Z,97.5259
2023-04-20T12:37:22.119Z,97.3370
2023-04-20T12:38:30.175Z,97.5177
2023-04-20T12:39:38.195Z,96.7335
2023-04-20T12:40:46.290Z,97.8697
2023-04-20T12:41:54.498Z,97.6474
2023-04-20T12:43:02.455Z,97.6109
2023-04-20T12:44:11.435Z,97.4011
2023-04-20T12:45:18.532Z,96.9989
2023-04-20T12:46:26.600Z,97.0114
2023-04-20T12:47:34.795Z,96.7660
2023-04-20T12:48:42.735Z,96.8640
2023-04-20T12:49:50.876Z,96.9607
2023-04-20T12:50:58.936Z,96.5830
2023-04-20T12:52:08.145Z,96.3687
2023-04-20T12:53:14.981Z,96.2346
2023-04-20T12:54:22.987Z,96.7165
2023-04-20T12:55:31.089Z,97.1402
2023-04-20T12:56:39.179Z,96.8511
2023-04-20T12:57:47.193Z,97.3698
2023-04-20T12:58:55.372Z,97.4648
2023-04-20T13:00:03.357Z,96.2310
2023-04-20T13:01:11.611Z,96.1263
2023-04-20T13:02:19.630Z,96.2092
2023-04-20T13:03:27.784Z,95.7804
2023-04-20T13:04:35.740Z,95.9915
2023-04-20T13:05:43.548Z,94.9729
2023-04-20T13:06:51.710Z,95.2304
2023-04-20T13:07:59.754Z,95.3280
2023-04-20T13:09:07.878Z,95.3067
2023-04-20T13:10:15.917Z,95.4569
2023-04-20T13:11:25.988Z,95.5310
2023-04-20T13:12:36.887Z,94.7836
2023-04-20T13:13:44.974Z,94.6442
2023-04-20T13:14:53.007Z,94.9796
2023-04-20T13:16:01.178Z,96.3017
2023-04-20T13:17:09.251Z,96.7508
2023-04-20T13:18:17.346Z,96.1615
2023-04-20T13:19:25.283Z,95.4953
2023-04-20T13:20:33.331Z,95.2241
2023-04-20T13:21:41.581Z,95.9059
2023-04-20T13:22:57.779Z,95.4105
2023-04-20T13:24:02.351Z,95.7190
2023-04-20T13:25:10.432Z,95.0404
2023-04-20T13:26:18.567Z,94.9298
2023-04-20T13:27:26.733Z,94.6428
2023-04-20T13:28:34.610Z,94.5875
2023-04-20T13:29:42.800Z,94.7919
2023-04-20T13:30:50.756Z,95.8246
2023-04-20T13:31:58.740Z,95.3788
2023-04-20T13:33:07.028Z,94.7717
2023-04-20T13:34:14.921Z,95.0581
2023-04-20T13:35:22.992Z,94.5039
2023-04-20T13:36:31.067Z,94.9096
2023-04-20T13:37:39.409Z,94.7513
2023-04-20T13:38:47.211Z,95.0500
2023-04-20T13:39:55.217Z,94.1493
2023-04-20T13:41:03.386Z,95.1341